createdAt,value
2022-08-08T00:02:32.874Z,99034.56
2022-08-08T00:05:09.656Z,99037.69
2022-08-08T00:08:00.888Z,99040.81
2022-08-08T00:10:53.018Z,99041.66
2022-08-08T00:14:15.933Z,99032.00
2022-08-08T00:16:37.700Z,99041.84
2022-08-08T00:19:20.175Z,99039.28
2022-08-08T00:22:06.356Z,99033.56
2022-08-08T00:24:42.774Z,99039.63
2022-08-08T00:27:13.956Z,99034.19
2022-08-08T00:29:47.156Z,99034.44
2022-08-08T00:32:35.080Z,99031.13
2022-08-08T00:35:21.232Z,99033.94
2022-08-08T00:38:06.566Z,99031.75
2022-08-08T00:41:10.465Z,99037.44
2022-08-08T00:43:58.777Z,99042.28
2022-08-08T00:46:58.137Z,99040.09
2022-08-08T00:49:50.508Z,99032.75
2022-08-08T00:52:54.177Z,99028.56
2022-08-08T00:55:53.273Z,99029.13
2022-08-08T00:58:43.689Z,99026.94
2022-08-08T01:01:38.466Z,99022.72
2022-08-08T01:04:33.264Z,99029.53
2022-08-08T01:07:54.085Z,99025.97
2022-08-08T01:10:45.129Z,99027.31
2022-08-08T01:13:53.074Z,99025.06
2022-08-08T01:17:05.369Z,99026.66
2022-08-08T01:20:23.526Z,99029.84
2022-08-08T01:23:08.170Z,99022.28
2022-08-08T01:26:30.869Z,99027.31
2022-08-08T01:29:35.403Z,99023.22
2022-08-08T01:32:17.072Z,99019.94
2022-08-08T01:35:12.488Z,99018.63
2022-08-08T01:37:59.180Z,99020.56
2022-08-08T01:40:50.453Z,99023.44
2022-08-08T01:43:34.594Z,99022.28
2022-08-08T01:46:23.999Z,99024.94
2022-08-08T01:49:23.290Z,99038.88
2022-08-08T01:53:03.677Z,99031.47
2022-08-08T01:56:26.754Z,99032.84
2022-08-08T01:59:02.796Z,99036.06
2022-08-08T02:02:03.181Z,99026.97
2022-08-08T02:05:16.037Z,99036.59
2022-08-08T02:08:18.405Z,99035.63
2022-08-08T02:11:01.215Z,99030.41
2022-08-08T02:14:03.260Z,99028.53
2022-08-08T02:16:49.416Z,99040.53
2022-08-08T02:19:26.689Z,99035.63
2022-08-08T02:22:34.096Z,99039.56
2022-08-08T02:25:47.518Z,99036.13
2022-08-08T02:28:41.386Z,99046.22
2022-08-08T02:31:59.308Z,99053.66
2022-08-08T02:34:34.846Z,99055.63
2022-08-08T02:37:52.376Z,99056.63
2022-08-08T02:40:50.219Z,99053.91
2022-08-08T02:44:37.640Z,99057.38
2022-08-08T02:47:00.236Z,99050.81
2022-08-08T02:49:57.075Z,99054.38
2022-08-08T02:52:38.790Z,99059.81
2022-08-08T02:55:23.689Z,99056.25
2022-08-08T02:58:28.333Z,99047.13
2022-08-08T03:01:32.690Z,99049.97
2022-08-08T03:05:03.242Z,99051.66
2022-08-08T03:08:13.518Z,99054.38
2022-08-08T03:11:07.260Z,99050.81
2022-08-08T03:15:58.358Z,99055.75
2022-08-08T03:16:48.949Z,99051.31
2022-08-08T03:19:28.069Z,99048.50
2022-08-08T03:21:59.684Z,99048.50
2022-08-08T03:24:27.111Z,99046.50
2022-08-08T03:27:26.927Z,99050.06
2022-08-08T03:30:02.192Z,99050.56
2022-08-08T03:32:58.610Z,99052.75
2022-08-08T03:35:30.067Z,99054.84
2022-08-08T03:38:57.107Z,99044.47
2022-08-08T03:40:52.280Z,99058.78
2022-08-08T03:43:19.965Z,99053.72
2022-08-08T03:46:07.357Z,99057.56
2022-08-08T03:49:09.700Z,99061.53
2022-08-08T03:51:40.014Z,99062.03
2022-08-08T03:54:08.740Z,99069.56
2022-08-08T03:56:36.384Z,99067.72
2022-08-08T03:59:03.754Z,99072.63
2022-08-08T04:02:31.722Z,99062.97
2022-08-08T04:04:30.673Z,99063.22
2022-08-08T04:07:01.522Z,99062.34
2022-08-08T04:09:59.433Z,99066.09
2022-08-08T04:12:16.069Z,99057.59
2022-08-08T04:14:45.246Z,99073.34
2022-08-08T04:17:22.501Z,99073.59
2022-08-08T04:19:59.568Z,99068.34
2022-08-08T04:22:30.562Z,99062.75
2022-08-08T04:24:58.170Z,99062.91
2022-08-08T04:28:02.722Z,99070.50
2022-08-08T04:30:18.509Z,99076.03
2022-08-08T04:32:49.928Z,99082.78
2022-08-08T04:35:22.787Z,99076.94
2022-08-08T04:37:51.018Z,99077.75
2022-08-08T04:40:18.455Z,99080.53
2022-08-08T04:42:55.878Z,99083.19
2022-08-08T04:45:23.817Z,99081.16
2022-08-08T04:47:54.571Z,99078.47
2022-08-08T04:50:25.355Z,99087.69
2022-08-08T04:53:04.846Z,99085.75
2022-08-08T04:55:55.182Z,99088.50
2022-08-08T04:58:23.196Z,99080.38
2022-08-08T05:00:51.777Z,99085.13
2022-08-08T05:04:11.160Z,99084.56
2022-08-08T05:06:12.675Z,99088.75
2022-08-08T05:08:42.079Z,99094.03
2022-08-08T05:11:18.628Z,99098.38
2022-08-08T05:13:58.109Z,99105.66
2022-08-08T05:16:50.969Z,99106.22
2022-08-08T05:20:10.731Z,99111.16
2022-08-08T05:22:05.651Z,99103.16
2022-08-08T05:24:34.294Z,99094.31
2022-08-08T05:27:07.536Z,99095.47
2022-08-08T05:29:36.042Z,99099.06
2022-08-08T05:32:07.627Z,99097.19
2022-08-08T05:34:41.003Z,99098.34
2022-08-08T05:37:15.756Z,99097.50
2022-08-08T05:39:50.049Z,99092.47
2022-08-08T05:42:25.635Z,99104.34
2022-08-08T05:44:53.339Z,99096.34
2022-08-08T05:47:22.150Z,99095.00
2022-08-08T05:49:53.871Z,99093.25
2022-08-08T05:52:22.784Z,99101.41
2022-08-08T05:55:03.276Z,99105.81
2022-08-08T05:58:06.183Z,99101.75
2022-08-08T06:00:25.837Z,99103.00
2022-08-08T06:03:13.231Z,99107.25
2022-08-08T06:05:56.569Z,99111.97
2022-08-08T06:08:37.796Z,99116.09
2022-08-08T06:11:05.962Z,99112.06
2022-08-08T06:13:36.337Z,99116.75
2022-08-08T06:16:14.642Z,99112.25
2022-08-08T06:18:42.910Z,99114.91
2022-08-08T06:21:11.605Z,99102.88
2022-08-08T06:24:03.310Z,99114.78
2022-08-08T06:26:45.183Z,99106.53
2022-08-08T06:29:48.742Z,99102.72
2022-08-08T06:32:15.243Z,99111.13
2022-08-08T06:35:11.682Z,99109.25
2022-08-08T06:37:40.072Z,99105.50
2022-08-08T06:40:14.246Z,99107.06
2022-08-08T06:42:56.448Z,99108.63
2022-08-08T06:45:23.846Z,99115.66
2022-08-08T06:48:01.559Z,99116.06
2022-08-08T06:50:31.904Z,99122.28
2022-08-08T06:53:14.094Z,99115.66
2022-08-08T06:55:47.115Z,99114.56
2022-08-08T06:58:30.824Z,99117.91
2022-08-08T07:01:52.415Z,99115.25
2022-08-08T07:04:40.394Z,99123.81
2022-08-08T07:06:46.289Z,99113.41
2022-08-08T07:09:20.852Z,99111.03
2022-08-08T07:11:53.182Z,99114.50
2022-08-08T07:14:33.947Z,99119.53
2022-08-08T07:17:09.266Z,99117.63
2022-08-08T07:20:00.072Z,99122.13
2022-08-08T07:23:05.530Z,99112.41
2022-08-08T07:25:39.001Z,99111.19
2022-08-08T07:28:19.686Z,99111.72
2022-08-08T07:30:47.258Z,99111.06
2022-08-08T07:33:17.641Z,99117.94
2022-08-08T07:35:48.622Z,99115.53
2022-08-08T07:38:21.158Z,99122.72
2022-08-08T07:41:04.540Z,99120.38
2022-08-08T07:43:36.866Z,99127.94
2022-08-08T07:46:17.962Z,99128.63
2022-08-08T07:48:51.440Z,99130.41
2022-08-08T07:51:23.124Z,99129.59
2022-08-08T07:54:26.577Z,99130.28
2022-08-08T07:57:10.245Z,99131.72
2022-08-08T07:59:59.814Z,99126.22
2022-08-08T08:02:41.741Z,99134.13
2022-08-08T08:05:20.506Z,99131.19
2022-08-08T08:07:52.964Z,99129.47
2022-08-08T08:10:21.178Z,99134.44
2022-08-08T08:13:25.473Z,99135.81
2022-08-08T08:16:18.263Z,99127.53
2022-08-08T08:18:56.052Z,99135.06
2022-08-08T08:21:44.460Z,99134.53
2022-08-08T08:24:15.565Z,99134.00
2022-08-08T08:26:46.994Z,99138.88
2022-08-08T08:29:20.053Z,99139.69
2022-08-08T08:31:54.064Z,99135.16
2022-08-08T08:34:32.529Z,99147.09
2022-08-08T08:37:07.414Z,99146.53
2022-08-08T08:39:59.827Z,99143.72
2022-08-08T08:42:29.473Z,99148.16
2022-08-08T08:45:21.664Z,99140.88
2022-08-08T08:47:53.254Z,99139.81
2022-08-08T08:50:32.449Z,99149.97
2022-08-08T08:53:27.935Z,99138.13
2022-08-08T08:55:52.970Z,99142.47
2022-08-08T08:58:27.991Z,99149.41
2022-08-08T09:01:08.290Z,99141.66
2022-08-08T09:03:47.635Z,99145.84
2022-08-08T09:06:29.006Z,99135.94
2022-08-08T09:09:35.314Z,99142.28
2022-08-08T09:12:11.242Z,99138.06
2022-08-08T09:14:43.039Z,99134.56
2022-08-08T09:17:17.874Z,99132.91
2022-08-08T09:21:57.612Z,99132.53
2022-08-08T09:22:36.019Z,99135.25
2022-08-08T09:25:04.950Z,99141.06
2022-08-08T09:27:55.811Z,99141.56
2022-08-08T09:30:22.259Z,99133.09
2022-08-08T09:33:55.453Z,99141.50
2022-08-08T09:35:50.073Z,99148.22
2022-08-08T09:38:59.330Z,99152.25
2022-08-08T09:42:15.234Z,99152.25
2022-08-08T09:44:44.089Z,99142.50
2022-08-08T09:47:26.478Z,99146.28
2022-08-08T09:50:11.807Z,99134.75
2022-08-08T09:52:58.416Z,99133.00
2022-08-08T09:55:51.295Z,99128.03
2022-08-08T09:58:27.675Z,99130.59
2022-08-08T10:01:14.447Z,99135.38
2022-08-08T10:04:02.296Z,99139.53
2022-08-08T10:06:32.651Z,99135.13
2022-08-08T10:09:02.522Z,99143.50
2022-08-08T10:12:25.730Z,99141.38
2022-08-08T10:14:34.798Z,99128.38
2022-08-08T10:17:56.604Z,99139.47
2022-08-08T10:20:00.122Z,99139.47
2022-08-08T10:22:33.905Z,99137.66
2022-08-08T10:25:15.723Z,99134.38
2022-08-08T10:27:43.853Z,99128.53
2022-08-08T10:30:16.423Z,99121.69
2022-08-08T10:33:00.846Z,99121.63
2022-08-08T10:36:20.721Z,99127.94
2022-08-08T10:38:20.164Z,99129.59
2022-08-08T10:40:51.791Z,99125.53
2022-08-08T10:43:22.237Z,99128.38
2022-08-08T10:45:56.618Z,99123.44
2022-08-08T10:48:37.163Z,99129.28
2022-08-08T10:51:14.016Z,99122.66
2022-08-08T10:53:57.492Z,99122.41
2022-08-08T10:56:27.517Z,99119.88
2022-08-08T10:59:01.230Z,99120.38
2022-08-08T11:01:29.597Z,99124.78
2022-08-08T11:04:02.576Z,99121.56
2022-08-08T11:06:34.635Z,99118.19
2022-08-08T11:09:15.530Z,99121.56
2022-08-08T11:12:05.831Z,99122.72
2022-08-08T11:14:52.267Z,99109.16
2022-08-08T11:17:59.684Z,99119.94
2022-08-08T11:20:27.743Z,99119.94
2022-08-08T11:23:05.522Z,99121.06
2022-08-08T11:25:51.815Z,99122.78
2022-08-08T11:28:25.707Z,99110.53
2022-08-08T11:30:59.949Z,99109.41
2022-08-08T11:33:51.825Z,99116.53
2022-08-08T11:36:15.309Z,99105.41
2022-08-08T11:38:54.781Z,99100.88
2022-08-08T11:41:24.843Z,99092.16
2022-08-08T11:43:57.807Z,99100.81
2022-08-08T11:46:26.525Z,99094.81
2022-08-08T11:48:56.290Z,99087.75
2022-08-08T11:51:30.010Z,99093.41
2022-08-08T11:54:27.407Z,99096.00
2022-08-08T11:57:17.087Z,99095.22
2022-08-08T12:00:00.613Z,99100.41
2022-08-08T12:02:41.753Z,99101.50
2022-08-08T12:05:13.300Z,99097.31
2022-08-08T12:07:56.695Z,99101.63
2022-08-08T12:10:29.031Z,99090.44
2022-08-08T12:13:05.444Z,99088.59
2022-08-08T12:15:42.704Z,99086.22
2022-08-08T12:18:14.576Z,99092.63
2022-08-08T12:20:44.901Z,99091.72
2022-08-08T12:23:25.072Z,99097.94
2022-08-08T12:26:09.841Z,99092.59
2022-08-08T12:28:36.521Z,99086.56
2022-08-08T12:31:10.048Z,99089.41
2022-08-08T12:34:01.955Z,99094.34
2022-08-08T12:36:46.227Z,99091.16
2022-08-08T12:39:13.359Z,99083.94
2022-08-08T12:41:57.327Z,99081.00
2022-08-08T12:44:32.916Z,99070.47
2022-08-08T12:47:00.969Z,99081.22
2022-08-08T12:49:45.330Z,99075.22
2022-08-08T12:52:28.699Z,99078.94
2022-08-08T12:55:13.360Z,99078.72
2022-08-08T12:57:49.557Z,99081.59
2022-08-08T13:00:34.204Z,99080.91
2022-08-08T13:03:07.338Z,99080.97
2022-08-08T13:06:04.131Z,99073.19
2022-08-08T13:08:22.221Z,99077.22
2022-08-08T13:11:00.356Z,99069.59
2022-08-08T13:13:34.633Z,99065.03
2022-08-08T13:16:25.325Z,99063.19
2022-08-08T13:18:56.970Z,99056.28
2022-08-08T13:21:36.303Z,99057.13
2022-08-08T13:24:18.538Z,99057.00
2022-08-08T13:27:02.489Z,99054.41
2022-08-08T13:29:37.930Z,99049.44
2022-08-08T13:32:08.537Z,99049.72
2022-08-08T13:34:39.836Z,99051.63
2022-08-08T13:37:19.516Z,99052.91
2022-08-08T13:39:58.363Z,99062.00
2022-08-08T13:42:25.986Z,99065.03
2022-08-08T13:44:57.146Z,99068.25
2022-08-08T13:47:25.600Z,99064.16
2022-08-08T13:50:37.622Z,99060.59
2022-08-08T13:52:48.495Z,99058.19
2022-08-08T13:55:28.975Z,99063.00
2022-08-08T13:58:08.141Z,99068.25
2022-08-08T14:00:45.291Z,99059.66
2022-08-08T14:03:47.292Z,99058.38
2022-08-08T14:06:20.632Z,99041.75
2022-08-08T14:08:58.087Z,99047.41
2022-08-08T14:11:29.891Z,99056.88
2022-08-08T14:13:59.449Z,99052.50
2022-08-08T14:16:28.020Z,99049.72
2022-08-08T14:19:00.661Z,99051.78
2022-08-08T14:21:48.767Z,99048.91
2022-08-08T14:24:34.834Z,99060.06
2022-08-08T14:27:07.371Z,99046.09
2022-08-08T14:29:39.387Z,99054.47
2022-08-08T14:32:11.611Z,99050.00
2022-08-08T14:34:42.608Z,99047.69
2022-08-08T14:37:11.674Z,99046.22
2022-08-08T14:39:49.958Z,99043.56
2022-08-08T14:42:28.314Z,99053.72
2022-08-08T14:45:00.847Z,99061.41
2022-08-08T14:47:34.386Z,99064.16
2022-08-08T14:50:15.090Z,99059.13
2022-08-08T14:53:09.813Z,99061.75
2022-08-08T14:55:42.418Z,99060.09
2022-08-08T14:58:11.777Z,99066.63
2022-08-08T15:00:45.125Z,99061.53
2022-08-08T15:03:15.782Z,99051.56
2022-08-08T15:05:53.724Z,99060.28
2022-08-08T15:08:34.495Z,99064.75
2022-08-08T15:11:06.841Z,99059.84
2022-08-08T15:13:40.848Z,99064.25
2022-08-08T15:16:22.823Z,99055.47
2022-08-08T15:18:52.061Z,99057.59
2022-08-08T15:21:20.674Z,99051.38
2022-08-08T15:23:51.046Z,99053.28
2022-08-08T15:29:12.210Z,99055.47
2022-08-08T15:32:17.976Z,99049.94
2022-08-08T15:34:31.455Z,99057.97
2022-08-08T15:37:02.368Z,99062.22
2022-08-08T15:39:38.207Z,99059.44
2022-08-08T15:42:18.175Z,99057.88
2022-08-08T15:44:58.810Z,99056.78
2022-08-08T15:47:25.487Z,99050.38
2022-08-08T15:49:53.344Z,99055.25
2022-08-08T15:52:22.138Z,99053.75
2022-08-08T15:54:51.800Z,99052.91
2022-08-08T15:57:20.735Z,99047.38
2022-08-08T16:00:06.908Z,99051.34
2022-08-08T16:02:34.588Z,99049.88
2022-08-08T16:05:02.039Z,99042.59
2022-08-08T16:07:51.693Z,99040.38
2022-08-08T16:13:10.123Z,99053.69
2022-08-08T16:13:28.630Z,99045.56
2022-08-08T16:15:59.061Z,99062.50
2022-08-08T16:18:35.979Z,99059.13
2022-08-08T16:21:05.987Z,99060.69
2022-08-08T16:23:50.085Z,99062.91
2022-08-08T16:26:23.016Z,99067.69
2022-08-08T16:29:03.343Z,99054.22
2022-08-08T16:31:35.109Z,99068.81
2022-08-08T16:34:04.157Z,99062.16
2022-08-08T16:36:33.793Z,99063.75
2022-08-08T16:39:16.685Z,99059.69
2022-08-08T16:41:51.147Z,99064.44
2022-08-08T16:44:27.862Z,99059.03
2022-08-08T16:47:16.538Z,99063.41
2022-08-08T16:49:44.077Z,99067.44
2022-08-08T16:55:20.746Z,99061.91
2022-08-08T16:55:34.010Z,99067.44
2022-08-08T16:58:13.799Z,99067.25
2022-08-08T17:00:34.925Z,99063.59
2022-08-08T17:03:03.532Z,99068.47
2022-08-08T17:05:31.197Z,99077.97
2022-08-08T17:08:09.512Z,99079.78
2022-08-08T17:10:36.274Z,99080.56
2022-08-08T17:13:03.049Z,99081.31
2022-08-08T17:15:41.331Z,99076.75
2022-08-08T17:18:19.535Z,99079.59
2022-08-08T17:20:47.137Z,99079.88
2022-08-08T17:23:58.497Z,99083.75
2022-08-08T17:26:05.354Z,99076.97
2022-08-08T17:28:35.259Z,99082.75
2022-08-08T17:31:44.064Z,99087.47
2022-08-08T17:34:49.420Z,99077.72
2022-08-08T17:36:38.417Z,99084.50
2022-08-08T17:40:04.787Z,99084.25
2022-08-08T17:42:12.855Z,99085.56
2022-08-08T17:44:44.014Z,99093.88
2022-08-08T17:47:23.188Z,99097.53
2022-08-08T17:49:52.877Z,99104.78
2022-08-08T17:52:24.044Z,99096.56
2022-08-08T17:54:56.438Z,99100.19
2022-08-08T17:57:24.903Z,99094.56
2022-08-08T17:59:58.792Z,99090.97
2022-08-08T18:02:30.223Z,99091.03
2022-08-08T18:05:04.351Z,99102.75
2022-08-08T18:08:02.356Z,99105.53
2022-08-08T18:10:20.000Z,99103.16
2022-08-08T18:12:57.862Z,99105.94
2022-08-08T18:15:25.320Z,99109.53
2022-08-08T18:18:09.966Z,99115.03
2022-08-08T18:20:54.568Z,99124.28
2022-08-08T18:23:22.385Z,99128.28
2022-08-08T18:25:50.147Z,99136.53
2022-08-08T18:28:21.647Z,99146.47
2022-08-08T18:30:52.288Z,99147.50
2022-08-08T18:33:36.949Z,99143.69
2022-08-08T18:36:10.217Z,99154.81
2022-08-08T18:38:49.175Z,99154.28
2022-08-08T18:41:16.002Z,99148.97
2022-08-08T18:43:43.536Z,99153.38
2022-08-08T18:46:55.369Z,99156.97
2022-08-08T18:48:58.042Z,99156.78
2022-08-08T18:51:52.840Z,99160.19
2022-08-08T18:54:22.534Z,99162.38
2022-08-08T18:56:57.525Z,99172.75
2022-08-08T18:59:24.761Z,99168.44
2022-08-08T19:02:27.995Z,99157.41
2022-08-08T19:04:50.897Z,99167.28
2022-08-08T19:07:18.361Z,99164.19
2022-08-08T19:09:49.598Z,99173.22
2022-08-08T19:12:32.537Z,99162.72
2022-08-08T19:15:02.023Z,99161.19
2022-08-08T19:17:48.483Z,99164.25
2022-08-08T19:20:16.416Z,99170.06
2022-08-08T19:22:44.654Z,99169.66
2022-08-08T19:25:29.133Z,99167.59
2022-08-08T19:28:01.260Z,99166.81
2022-08-08T19:30:28.381Z,99164.69
2022-08-08T19:32:58.106Z,99163.44
2022-08-08T19:35:44.207Z,99163.94
2022-08-08T19:38:17.499Z,99158.41
2022-08-08T19:40:55.763Z,99155.56
2022-08-08T19:43:28.607Z,99166.13
2022-08-08T19:46:01.047Z,99176.69
2022-08-08T19:48:30.903Z,99166.53
2022-08-08T19:51:00.890Z,99172.47
2022-08-08T19:53:51.591Z,99178.41
2022-08-08T19:56:16.219Z,99181.91
2022-08-08T19:58:52.934Z,99187.16
2022-08-08T20:01:26.254Z,99180.38
2022-08-08T20:04:03.610Z,99178.44
2022-08-08T20:06:30.622Z,99179.91
2022-08-08T20:08:58.109Z,99181.94
2022-08-08T20:11:24.839Z,99181.50
2022-08-08T20:14:33.085Z,99179.97
2022-08-08T20:16:45.473Z,99181.28
2022-08-08T20:19:12.313Z,99188.06
2022-08-08T20:21:43.022Z,99189.53
2022-08-08T20:24:12.739Z,99189.13
2022-08-08T20:26:41.647Z,99192.28
2022-08-08T20:32:07.516Z,99190.31
2022-08-08T20:34:31.831Z,99196.94
2022-08-08T20:37:00.794Z,99198.09
2022-08-08T20:39:41.629Z,99195.38
2022-08-08T20:42:23.692Z,99192.78
2022-08-08T20:44:57.862Z,99200.97
2022-08-08T20:47:25.534Z,99196.50
2022-08-08T20:49:55.789Z,99204.00
2022-08-08T20:52:27.748Z,99200.88
2022-08-08T20:54:55.774Z,99203.31
2022-08-08T20:57:22.587Z,99208.66
2022-08-08T20:59:54.120Z,99206.50
2022-08-08T21:02:25.888Z,99203.34
2022-08-08T21:05:01.168Z,99210.56
2022-08-08T21:07:29.922Z,99213.84
2022-08-08T21:10:15.042Z,99205.09
2022-08-08T21:12:52.778Z,99208.84
2022-08-08T21:16:06.233Z,99210.56
2022-08-08T21:18:11.828Z,99215.47
2022-08-08T21:20:38.936Z,99213.31
2022-08-08T21:23:09.506Z,99201.69
2022-08-08T21:25:39.657Z,99210.88
2022-08-08T21:28:15.835Z,99211.72
2022-08-08T21:30:45.265Z,99217.47
2022-08-08T21:33:17.611Z,99207.84
2022-08-08T21:36:17.842Z,99209.16
2022-08-08T21:38:31.210Z,99209.47
2022-08-08T21:40:58.291Z,99209.59
2022-08-08T21:43:31.312Z,99204.00
2022-08-08T21:48:07.422Z,99212.47
2022-08-08T21:48:53.223Z,99203.44
2022-08-08T21:54:23.434Z,99205.13
2022-08-08T21:54:32.212Z,99204.28
2022-08-08T21:56:57.170Z,99211.44
2022-08-08T21:59:26.717Z,99206.00
2022-08-08T22:02:10.731Z,99205.28
2022-08-08T22:04:39.326Z,99200.84
2022-08-08T22:07:06.008Z,99207.47
2022-08-08T22:09:37.260Z,99207.72
2022-08-08T22:12:09.666Z,99202.56
2022-08-08T22:14:42.796Z,99204.44
2022-08-08T22:17:10.557Z,99203.84
2022-08-08T22:20:12.986Z,99206.41
2022-08-08T22:22:29.128Z,99198.81
2022-08-08T22:24:58.253Z,99195.34
2022-08-08T22:27:38.903Z,99194.47
2022-08-08T22:30:13.659Z,99201.09
2022-08-08T22:32:41.193Z,99205.81
2022-08-08T22:35:08.486Z,99205.09
2022-08-08T22:37:53.907Z,99205.66
2022-08-08T22:40:21.283Z,99209.97
2022-08-08T22:42:48.329Z,99205.06
2022-08-08T22:45:15.783Z,99205.59
2022-08-08T22:47:49.421Z,99210.91
2022-08-08T22:50:27.479Z,99216.91
2022-08-08T22:54:30.506Z,99214.75
2022-08-08T22:55:59.307Z,99215.44
2022-08-08T22:58:33.009Z,99211.41
2022-08-08T23:01:30.170Z,99222.56
2022-08-08T23:03:56.559Z,99219.50
2022-08-08T23:06:24.846Z,99221.63
2022-08-08T23:08:54.286Z,99228.06
2022-08-08T23:11:23.222Z,99229.94
2022-08-08T23:14:00.999Z,99232.78
2022-08-08T23:16:38.058Z,99216.88
2022-08-08T23:19:09.576Z,99228.16
2022-08-08T23:21:38.110Z,99222.53
2022-08-08T23:24:06.660Z,99219.63
2022-08-08T23:26:34.347Z,99219.28
2022-08-08T23:29:01.744Z,99216.25
2022-08-08T23:31:28.470Z,99227.94
2022-08-08T23:34:17.001Z,99227.47
2022-08-08T23:36:42.381Z,99221.72
2022-08-08T23:39:09.365Z,99216.81
2022-08-08T23:41:41.612Z,99219.16
2022-08-08T23:44:12.626Z,99216.13
2022-08-08T23:49:03.598Z,99225.63
2022-08-08T23:49:26.488Z,99225.44
2022-08-08T23:52:06.770Z,99218.66
2022-08-08T23:54:53.601Z,99213.34
2022-08-08T23:57:39.355Z,99230.75
